Autoridad de Aeronautica Civil de Panamá


taf




 

AERÓDROMOS

 

PRONOSTICO DE AERÓDROMO
TAF

AEROPUERTO INTL. DE TOCUMEN:


TAF MPTO 140500Z 1406/1512 18005KT 9999 SCT018 SCT080 TEMPO 1407/1409 02006KT TEMPO 1411/1413 VRB02KT PROB40 1419/1422 5000 TSRA SCT015CB BKN080=
AEROPUERTO MARCOS A. GELABERT:


TAF MPMG 141100Z 1412/1424 19006KT 9999 SCT018 SCT080 PROB40 1417/1421 5000 TSRA SCT015CB BKN080=
AEROPUERTO ENRIQUE MALEK:


TAF MPDA 141100Z 1412/1424 21005KT 9999 SCT018 SCT080 BECMG 1420/1424 5000 TSRA SCT014CB BKN070=
AEROPUERTO PANAMA PACIFICO:


TAF MPPA 141100Z 1412/1518 17005KT 9999 SCT018 SCT080 TEMPO 1418/1420 5000 TSRA SCT014CB BKN080 TEMPO 1421/1423 7000 RA SCT016CB BKN080 TEMPO 1500/1502 NSW PROB30 1508/1510 00000KT 6000 TSRA SCT016CB BKN090=
AEROPUERTO SCARLETT MARTÍNEZ:


TAF MPSM 141100Z 1412/1518 31006KT 9999 SCT018 SCT080 PROB30 TEMPO 1421/1423 16009KT 6000 TSRA SCT015CB BKN080 TEMPO 1508/1510 00000KT=


Contador: 513